Time;durP1;ratioP1;P1;durP2;ratioP2;P2;SDS_P1;SDS_P2;PMS_P1;PMS_P2;Temp;Humidity;BMP_temperature;BMP_pressure;BME280_temperature;BME280_humidity;BME280_pressure;Samples;Min_cycle;Max_cycle;Signal;HPM_P1;HPM_P2
2024/02/22 00:00:41;;;;;;;5.20;3.40;;;10.80;99.90;;;;;;5027098;28;20047;-52
2024/02/22 00:03:08;;;;;;;4.38;3.72;;;10.70;99.90;;;;;;5026512;28;20045;-53
2024/02/22 00:05:35;;;;;;;4.55;3.20;;;10.70;99.90;;;;;;5027276;28;20054;-50
2024/02/22 00:08:02;;;;;;;3.65;3.15;;;10.70;99.90;;;;;;5026084;28;20041;-50
2024/02/22 00:10:29;;;;;;;3.65;3.22;;;10.70;99.90;;;;;;5027590;28;20045;-49
2024/02/22 00:12:58;;;;;;;4.60;3.42;;;10.60;99.90;;;;;;5008644;28;20081;-49
2024/02/22 00:15:26;;;;;;;4.00;3.25;;;10.60;99.90;;;;;;5028455;28;20057;-52
2024/02/22 00:17:53;;;;;;;5.63;3.45;;;10.60;99.90;;;;;;5025799;28;20265;-47
2024/02/22 00:20:23;;;;;;;5.63;3.60;;;10.60;99.90;;;;;;5026381;28;20128;-52
2024/02/22 00:22:51;;;;;;;4.95;4.03;;;10.50;99.90;;;;;;5026505;28;20052;-51
2024/02/22 00:25:20;;;;;;;4.88;4.00;;;10.40;99.90;;;;;;5027506;28;20037;-49
2024/02/22 00:27:47;;;;;;;5.78;3.70;;;10.40;99.90;;;;;;5011213;28;20140;-52
2024/02/22 00:30:14;;;;;;;5.53;3.78;;;10.30;99.90;;;;;;5026926;28;20499;-52
2024/02/22 00:32:46;;;;;;;4.13;3.50;;;10.30;99.90;;;;;;5026426;28;20053;-48
2024/02/22 00:35:13;;;;;;;6.00;3.83;;;10.30;99.90;;;;;;5028524;28;20128;-44
2024/02/22 00:37:40;;;;;;;4.18;3.70;;;10.20;99.90;;;;;;5026646;28;20069;-47
2024/02/22 00:40:09;;;;;;;4.78;3.83;;;10.20;99.90;;;;;;5024832;28;20076;-48
2024/02/22 00:42:40;;;;;;;6.80;3.92;;;10.10;99.90;;;;;;5029407;28;20116;-51
2024/02/22 00:45:08;;;;;;;4.95;3.75;;;10.10;99.90;;;;;;5027907;28;20048;-45
2024/02/22 00:47:35;;;;;;;5.68;4.00;;;10.10;99.90;;;;;;5032263;28;20525;-45
2024/02/22 00:50:02;;;;;;;6.20;3.80;;;10.10;99.90;;;;;;5031777;28;20049;-49
2024/02/22 00:52:30;;;;;;;5.97;4.00;;;10.10;99.90;;;;;;5031778;28;20037;-48
2024/02/22 00:54:57;;;;;;;5.50;3.60;;;10.10;99.90;;;;;;5032263;28;20044;-50
2024/02/22 00:57:23;;;;;;;5.00;4.03;;;10.00;99.90;;;;;;5030284;28;20486;-49
2024/02/22 00:59:50;;;;;;;8.93;3.67;;;10.10;99.90;;;;;;5030269;28;20513;-52
2024/02/22 01:02:17;;;;;;;5.03;3.40;;;10.20;99.90;;;;;;5031051;28;20210;-43
2024/02/22 01:04:45;;;;;;;4.63;3.72;;;10.30;99.90;;;;;;5030032;28;20787;-48
2024/02/22 01:07:12;;;;;;;6.15;3.58;;;10.30;99.90;;;;;;5030678;28;20060;-48
2024/02/22 01:09:39;;;;;;;5.60;3.67;;;10.30;99.90;;;;;;5034527;28;20524;-51
2024/02/22 01:12:06;;;;;;;5.32;3.85;;;10.30;99.90;;;;;;5031189;28;20116;-45
2024/02/22 01:14:33;;;;;;;4.72;3.50;;;10.30;99.90;;;;;;5031925;28;20049;-52
2024/02/22 01:17:00;;;;;;;4.18;3.40;;;10.40;99.90;;;;;;5031629;28;20042;-52
2024/02/22 01:19:27;;;;;;;4.22;3.30;;;10.40;99.90;;;;;;5031953;28;20087;-53
2024/02/22 01:21:56;;;;;;;5.55;3.20;;;10.50;99.90;;;;;;5031183;28;20042;-44
2024/02/22 01:24:24;;;;;;;5.35;3.20;;;10.70;99.90;;;;;;5031531;28;20175;-49
2024/02/22 01:26:51;;;;;;;3.83;3.38;;;10.80;99.90;;;;;;5031783;28;20790;-50
2024/02/22 01:29:18;;;;;;;4.32;3.30;;;10.80;99.90;;;;;;5032827;28;20049;-48
2024/02/22 01:31:45;;;;;;;5.20;3.40;;;10.80;99.90;;;;;;5033712;28;20514;-46
2024/02/22 01:34:12;;;;;;;4.38;3.30;;;10.90;99.90;;;;;;5033951;28;20140;-47
2024/02/22 01:36:39;;;;;;;3.92;3.33;;;10.90;99.90;;;;;;5033743;28;20068;-46
2024/02/22 01:39:09;;;;;;;3.97;3.58;;;11.00;99.90;;;;;;5033556;28;20060;-48
2024/02/22 01:41:36;;;;;;;3.55;3.20;;;11.00;99.90;;;;;;5032403;28;20497;-45
2024/02/22 01:44:03;;;;;;;4.25;3.58;;;11.00;99.90;;;;;;5031320;28;20041;-51
2024/02/22 01:46:31;;;;;;;4.22;3.50;;;11.10;99.90;;;;;;5029876;28;20044;-46
2024/02/22 01:49:00;;;;;;;4.63;3.60;;;11.10;99.90;;;;;;5028057;28;20056;-48
2024/02/22 01:51:28;;;;;;;4.40;3.55;;;11.10;99.90;;;;;;5030020;28;20068;-48
2024/02/22 01:53:56;;;;;;;4.22;3.60;;;11.10;99.90;;;;;;5031027;28;20049;-48
2024/02/22 01:56:24;;;;;;;4.00;3.60;;;11.10;99.90;;;;;;5030842;28;20053;-48
2024/02/22 01:58:52;;;;;;;4.00;3.60;;;11.20;99.90;;;;;;5028816;28;20041;-45
2024/02/22 02:01:24;;;;;;;5.10;3.80;;;11.10;99.90;;;;;;5009966;28;20111;-49
2024/02/22 02:03:52;;;;;;;5.63;3.35;;;11.10;99.90;;;;;;5026820;28;20046;-48
2024/02/22 02:06:20;;;;;;;3.97;3.40;;;11.10;99.90;;;;;;5027888;28;20108;-50
2024/02/22 02:08:47;;;;;;;5.20;3.40;;;11.10;99.90;;;;;;5027875;28;20656;-43
2024/02/22 02:11:14;;;;;;;4.47;3.28;;;11.00;99.90;;;;;;5029509;28;20065;-54
2024/02/22 02:13:42;;;;;;;4.45;3.75;;;11.00;99.90;;;;;;5030934;28;20049;-47
2024/02/22 02:16:09;;;;;;;4.95;3.65;;;11.00;99.90;;;;;;5030529;28;20049;-52
2024/02/22 02:18:36;;;;;;;4.35;3.65;;;10.90;99.90;;;;;;5032055;28;20068;-50
2024/02/22 02:21:24;;;;;;;6.10;4.22;;;10.90;99.90;;;;;;5027042;28;20518;-54
2024/02/22 02:24:06;;;;;;;4.60;3.83;;;10.90;99.90;;;;;;5024739;28;20048;-53
2024/02/22 02:26:33;;;;;;;4.00;3.60;;;10.80;99.90;;;;;;5023225;28;20048;-52
2024/02/22 02:29:00;;;;;;;5.00;3.95;;;10.70;99.90;;;;;;5028650;28;20064;-45
2024/02/22 02:31:28;;;;;;;3.95;3.50;;;10.60;99.90;;;;;;5027754;28;20048;-51
2024/02/22 02:33:55;;;;;;;6.95;3.60;;;10.50;99.90;;;;;;5027309;28;20537;-52
2024/02/22 02:36:22;;;;;;;4.80;3.60;;;10.50;99.90;;;;;;5028745;28;20052;-49
2024/02/22 02:38:49;;;;;;;7.15;4.25;;;10.50;99.90;;;;;;5027605;28;20525;-50
2024/02/22 02:41:16;;;;;;;6.00;3.30;;;10.40;99.90;;;;;;5028092;28;20160;-47
2024/02/22 02:43:43;;;;;;;3.92;3.45;;;10.40;99.90;;;;;;5023510;28;20049;-51
2024/02/22 02:46:10;;;;;;;5.20;3.80;;;10.40;99.90;;;;;;5028941;28;20068;-47
2024/02/22 02:48:37;;;;;;;5.97;4.03;;;10.30;99.90;;;;;;5029101;28;20209;-52
2024/02/22 02:51:05;;;;;;;5.53;4.00;;;10.20;99.90;;;;;;5028036;28;20435;-56
2024/02/22 02:53:32;;;;;;;4.43;3.30;;;10.30;99.90;;;;;;5032353;28;20107;-51
2024/02/22 02:55:59;;;;;;;6.13;3.60;;;10.30;99.90;;;;;;5024867;28;20103;-54
2024/02/22 02:58:26;;;;;;;5.30;3.50;;;10.30;99.90;;;;;;5026488;28;20041;-50
2024/02/22 03:00:53;;;;;;;4.25;3.30;;;10.30;99.90;;;;;;5026800;28;20544;-46
2024/02/22 03:03:19;;;;;;;4.95;3.70;;;10.30;99.90;;;;;;5025400;28;20465;-47
2024/02/22 03:05:46;;;;;;;5.82;3.78;;;10.30;99.90;;;;;;5026096;28;20041;-49
2024/02/22 03:08:14;;;;;;;4.30;3.22;;;10.40;99.90;;;;;;5025177;28;20036;-50
2024/02/22 03:10:41;;;;;;;4.63;3.70;;;10.40;99.90;;;;;;5026698;28;20497;-49
2024/02/22 03:13:08;;;;;;;5.00;3.45;;;10.30;99.90;;;;;;5026030;28;20057;-45
2024/02/22 03:15:38;;;;;;;4.22;3.50;;;10.20;99.90;;;;;;5026643;28;20045;-52
2024/02/22 03:18:06;;;;;;;4.90;3.33;;;10.20;99.90;;;;;;5026175;28;20037;-49
2024/02/22 03:20:34;;;;;;;4.30;3.30;;;10.20;99.90;;;;;;5026618;28;20180;-45
2024/02/22 03:23:02;;;;;;;4.80;3.50;;;10.20;99.90;;;;;;5027575;28;20136;-52
2024/02/22 03:25:30;;;;;;;4.00;3.50;;;10.20;99.90;;;;;;5027110;28;20065;-47
2024/02/22 03:27:58;;;;;;;4.03;3.38;;;10.10;99.90;;;;;;5026053;28;20107;-48
2024/02/22 03:30:27;;;;;;;6.13;3.40;;;10.10;99.90;;;;;;5027173;28;20034;-48
2024/02/22 03:32:55;;;;;;;4.82;3.78;;;10.10;99.90;;;;;;5027062;28;20072;-46
2024/02/22 03:35:22;;;;;;;4.93;3.92;;;10.10;99.90;;;;;;5027096;28;20041;-47
2024/02/22 03:37:50;;;;;;;4.82;3.60;;;10.10;99.90;;;;;;5025936;28;20484;-43
2024/02/22 03:40:17;;;;;;;4.53;3.00;;;10.10;99.90;;;;;;5027107;28;20038;-52
2024/02/22 03:42:44;;;;;;;6.45;3.17;;;10.00;99.90;;;;;;5025380;28;20065;-44
2024/02/22 03:45:12;;;;;;;3.97;3.20;;;9.90;99.90;;;;;;5025990;28;20034;-46
2024/02/22 03:47:39;;;;;;;3.95;3.15;;;9.80;99.90;;;;;;5025871;28;20049;-43
2024/02/22 03:50:06;;;;;;;4.32;3.00;;;9.70;99.90;;;;;;5023702;28;20069;-50
2024/02/22 03:52:33;;;;;;;3.88;2.70;;;9.60;99.90;;;;;;5027363;28;20155;-51
2024/02/22 03:55:02;;;;;;;4.35;3.00;;;9.60;99.90;;;;;;5028350;28;20516;-49
2024/02/22 03:57:28;;;;;;;4.38;2.78;;;9.50;99.90;;;;;;5029091;28;20292;-45
2024/02/22 03:59:55;;;;;;;4.95;2.70;;;9.50;99.90;;;;;;5030843;28;20128;-47
2024/02/22 04:02:22;;;;;;;4.75;2.40;;;9.40;99.90;;;;;;5029533;28;20044;-47
2024/02/22 04:04:50;;;;;;;7.07;3.08;;;9.40;99.90;;;;;;5027607;28;20053;-49
2024/02/22 04:07:18;;;;;;;5.15;2.63;;;9.30;99.90;;;;;;5028512;28;20189;-47
2024/02/22 04:09:45;;;;;;;4.78;2.88;;;9.30;99.90;;;;;;5027850;28;20523;-44
2024/02/22 04:12:12;;;;;;;4.00;2.45;;;9.20;99.90;;;;;;5025186;28;20259;-48
2024/02/22 04:14:39;;;;;;;6.32;3.38;;;9.20;99.90;;;;;;5022727;28;20077;-49
2024/02/22 04:17:06;;;;;;;6.07;2.72;;;9.20;99.90;;;;;;5028472;28;20132;-49
2024/02/22 04:19:33;;;;;;;5.72;2.70;;;9.10;99.90;;;;;;5029762;28;20045;-47
2024/02/22 04:22:00;;;;;;;3.85;2.60;;;9.00;99.90;;;;;;5029465;28;20065;-50
2024/02/22 04:24:27;;;;;;;4.22;2.30;;;9.00;99.90;;;;;;5029169;28;20041;-49
2024/02/22 04:26:58;;;;;;;5.55;2.50;;;9.00;99.90;;;;;;5030800;28;20124;-46
2024/02/22 04:29:25;;;;;;;;;;;8.90;99.90;;;;;;5032483;28;20570;-45
2024/02/22 04:31:52;;;;;;;4.40;2.60;;;9.00;99.90;;;;;;5031755;28;19925;-45
2024/02/22 04:34:19;;;;;;;7.00;2.60;;;8.90;99.90;;;;;;5036640;28;20063;-51
2024/02/22 04:36:47;;;;;;;3.42;2.30;;;8.90;99.90;;;;;;5034297;28;20103;-44
2024/02/22 04:39:15;;;;;;;3.35;2.40;;;9.00;99.90;;;;;;5035177;28;20076;-45
2024/02/22 04:41:42;;;;;;;4.85;2.58;;;8.90;99.90;;;;;;5029035;28;20061;-50
2024/02/22 04:44:09;;;;;;;4.15;2.35;;;8.90;99.90;;;;;;5031051;28;20037;-43
2024/02/22 04:46:36;;;;;;;4.75;2.47;;;8.80;99.90;;;;;;5029408;28;20041;-50
2024/02/22 04:49:04;;;;;;;4.15;2.33;;;8.80;99.90;;;;;;5031568;28;20052;-54
2024/02/22 04:51:33;;;;;;;4.68;2.55;;;8.80;99.90;;;;;;5013039;28;20057;-49
2024/02/22 04:54:01;;;;;;;3.88;2.33;;;8.80;99.90;;;;;;5028496;28;20140;-49
2024/02/22 04:56:28;;;;;;;4.88;2.42;;;8.80;99.90;;;;;;5029190;28;20056;-49
2024/02/22 04:58:56;;;;;;;5.20;2.70;;;8.80;99.90;;;;;;5031033;28;20345;-50
2024/02/22 05:01:24;;;;;;;4.25;2.40;;;8.70;99.90;;;;;;5030217;28;20454;-51
2024/02/22 05:03:51;;;;;;;4.03;2.30;;;8.80;99.90;;;;;;5029142;28;20056;-48
2024/02/22 05:06:19;;;;;;;7.45;2.80;;;8.80;99.90;;;;;;5030025;28;20125;-46
2024/02/22 05:08:46;;;;;;;4.47;2.78;;;8.70;99.90;;;;;;5028757;28;20085;-48
2024/02/22 05:11:13;;;;;;;5.53;2.47;;;8.70;99.90;;;;;;5030798;28;20042;-46
2024/02/22 05:13:43;;;;;;;4.43;2.15;;;8.70;99.90;;;;;;5029014;28;20044;-54
2024/02/22 05:16:10;;;;;;;4.00;2.33;;;8.60;99.90;;;;;;5030555;28;20045;-50
2024/02/22 05:18:37;;;;;;;3.97;1.98;;;8.60;99.90;;;;;;5028276;28;20579;-50
2024/02/22 05:21:05;;;;;;;4.03;2.38;;;8.60;99.90;;;;;;5029612;28;20212;-48
2024/02/22 05:23:32;;;;;;;3.53;2.10;;;8.60;99.90;;;;;;5028627;28;20084;-47
2024/02/22 05:25:59;;;;;;;6.22;2.40;;;8.60;99.90;;;;;;5025884;28;20099;-49
2024/02/22 05:28:26;;;;;;;4.15;2.17;;;8.50;99.90;;;;;;5026395;28;20053;-46
2024/02/22 05:30:53;;;;;;;4.45;2.10;;;8.50;99.90;;;;;;5027420;28;20328;-48
2024/02/22 05:33:20;;;;;;;6.13;2.83;;;8.50;99.90;;;;;;5028151;28;20045;-46
2024/02/22 05:35:48;;;;;;;4.45;2.85;;;8.50;99.90;;;;;;5031831;28;20065;-50
2024/02/22 05:38:15;;;;;;;4.95;2.88;;;8.50;99.90;;;;;;5031900;28;20494;-52
2024/02/22 05:40:42;;;;;;;6.00;3.10;;;8.50;99.90;;;;;;5033915;28;20057;-49
2024/02/22 05:43:10;;;;;;;6.45;3.20;;;8.50;99.90;;;;;;5031449;28;20048;-52
2024/02/22 05:45:43;;;;;;;6.95;3.35;;;8.50;99.90;;;;;;5031983;28;20097;-53
2024/02/22 05:48:11;;;;;;;7.63;3.40;;;8.50;99.90;;;;;;5036099;28;20045;-45
2024/02/22 05:50:38;;;;;;;6.35;3.58;;;8.40;99.90;;;;;;5035403;28;20045;-50
2024/02/22 05:53:06;;;;;;;6.72;3.75;;;8.30;99.90;;;;;;5032925;28;20143;-47
2024/02/22 05:55:33;;;;;;;7.57;3.60;;;8.30;99.90;;;;;;5030731;28;20077;-47
2024/02/22 05:58:00;;;;;;;6.57;3.70;;;8.30;99.90;;;;;;5028598;28;20530;-53
2024/02/22 06:00:27;;;;;;;6.18;3.50;;;8.30;99.90;;;;;;5027704;28;20057;-44
2024/02/22 06:02:53;;;;;;;7.43;3.85;;;8.20;99.90;;;;;;5025953;28;20132;-54
2024/02/22 06:05:21;;;;;;;5.82;3.70;;;8.20;99.90;;;;;;5022183;28;20482;-47
2024/02/22 06:07:48;;;;;;;6.70;3.67;;;8.20;99.90;;;;;;5028606;28;20041;-52
2024/02/22 06:10:15;;;;;;;7.68;4.53;;;8.20;99.90;;;;;;5028711;28;20041;-43
2024/02/22 06:12:44;;;;;;;8.95;4.90;;;8.20;99.90;;;;;;5029010;28;20111;-49
2024/02/22 06:15:10;;;;;;;9.70;5.35;;;8.20;99.90;;;;;;5028041;28;20072;-46
2024/02/22 06:17:37;;;;;;;9.25;4.75;;;8.20;99.90;;;;;;5028369;28;20055;-47
2024/02/22 06:20:05;;;;;;;11.10;4.82;;;8.20;99.90;;;;;;5029252;28;20132;-51
2024/02/22 06:22:33;;;;;;;7.07;4.80;;;8.20;99.90;;;;;;5028470;28;20461;-53
2024/02/22 06:25:01;;;;;;;7.70;4.65;;;8.20;99.90;;;;;;5028389;28;20059;-53
2024/02/22 06:27:28;;;;;;;8.98;5.15;;;8.20;99.90;;;;;;5029382;28;20120;-53
2024/02/22 06:29:55;;;;;;;9.52;4.95;;;8.20;99.90;;;;;;5029461;28;20061;-47
2024/02/22 06:32:24;;;;;;;9.38;4.72;;;8.20;99.90;;;;;;5028397;28;20507;-47
2024/02/22 06:34:51;;;;;;;11.18;5.22;;;8.20;99.90;;;;;;5027382;28;20160;-46
2024/02/22 06:37:19;;;;;;;7.95;5.10;;;8.20;99.90;;;;;;5023968;28;20051;-47
2024/02/22 06:39:46;;;;;;;11.68;6.00;;;8.20;99.90;;;;;;5029855;28;20049;-49
2024/02/22 06:42:13;;;;;;;9.48;5.28;;;8.20;99.90;;;;;;5025688;28;20072;-48
2024/02/22 06:44:44;;;;;;;10.60;5.00;;;8.20;99.90;;;;;;5027187;28;20366;-45
2024/02/22 06:47:14;;;;;;;8.18;4.85;;;8.20;99.90;;;;;;5026078;28;20069;-50
2024/02/22 06:49:41;;;;;;;9.25;4.38;;;8.20;99.90;;;;;;5028468;28;20049;-52
2024/02/22 06:52:08;;;;;;;10.82;5.35;;;8.30;99.90;;;;;;5028646;28;20038;-50
2024/02/22 06:54:35;;;;;;;11.10;5.07;;;8.30;99.90;;;;;;5037656;28;20053;-50
2024/02/22 06:57:05;;;;;;;8.65;4.85;;;8.30;99.90;;;;;;5028425;28;20065;-45
2024/02/22 06:59:33;;;;;;;7.88;4.03;;;8.30;99.90;;;;;;5029091;28;20536;-47
2024/02/22 07:02:00;;;;;;;9.05;4.90;;;8.30;99.90;;;;;;5010409;28;20057;-49
2024/02/22 07:04:27;;;;;;;8.63;4.80;;;8.30;99.90;;;;;;5027016;28;20057;-46
2024/02/22 07:06:55;;;;;;;11.05;5.43;;;8.30;99.90;;;;;;5027904;28;20045;-49
2024/02/22 07:09:22;;;;;;;12.90;4.45;;;8.30;99.90;;;;;;5025477;28;20037;-51
2024/02/22 07:11:49;;;;;;;15.48;4.80;;;8.30;99.90;;;;;;5027710;28;20532;-52
2024/02/22 07:14:16;;;;;;;8.55;4.32;;;8.40;99.90;;;;;;5025405;28;20033;-50
2024/02/22 07:16:46;;;;;;;7.93;4.75;;;8.40;99.90;;;;;;5027336;28;20095;-54
2024/02/22 07:19:13;;;;;;;14.93;5.00;;;8.40;99.90;;;;;;5010139;28;20041;-46
2024/02/22 07:21:40;;;;;;;7.82;4.95;;;8.40;99.90;;;;;;5026968;28;20056;-52
2024/02/22 07:24:07;;;;;;;7.70;4.78;;;8.40;99.90;;;;;;5024048;28;20045;-48
2024/02/22 07:26:34;;;;;;;8.57;4.88;;;8.50;99.90;;;;;;5025543;28;20649;-56
2024/02/22 07:29:02;;;;;;;7.45;4.55;;;8.40;99.90;;;;;;5029320;28;20041;-48
2024/02/22 07:31:29;;;;;;;10.45;4.45;;;8.40;99.90;;;;;;5031150;28;20064;-51
2024/02/22 07:33:57;;;;;;;8.60;4.65;;;8.50;99.90;;;;;;5031268;28;20080;-51
2024/02/22 07:36:25;;;;;;;7.85;3.83;;;8.40;99.90;;;;;;5028150;28;20041;-49
2024/02/22 07:38:52;;;;;;;7.53;4.50;;;8.40;99.90;;;;;;5027819;28;20045;-43
2024/02/22 07:41:19;;;;;;;8.55;4.53;;;8.50;99.90;;;;;;5027678;28;20171;-52
2024/02/22 07:43:47;;;;;;;7.78;3.90;;;8.50;99.90;;;;;;5028216;28;20050;-48
2024/02/22 07:46:16;;;;;;;8.75;4.20;;;8.50;99.90;;;;;;5027107;28;20068;-51
2024/02/22 07:48:44;;;;;;;7.03;4.30;;;8.50;99.90;;;;;;5028956;28;20051;-48
2024/02/22 07:51:12;;;;;;;8.55;4.50;;;8.50;99.90;;;;;;5026916;28;20045;-52
2024/02/22 07:53:39;;;;;;;7.35;3.88;;;8.50;99.90;;;;;;5032075;28;20046;-52
2024/02/22 07:56:07;;;;;;;7.15;4.00;;;8.60;99.90;;;;;;5026576;28;20045;-50
2024/02/22 07:58:53;;;;;;;5.93;3.80;;;8.60;99.90;;;;;;5026936;28;20048;-48
2024/02/22 08:01:20;;;;;;;7.88;3.97;;;8.70;99.90;;;;;;5024228;28;20425;-47
2024/02/22 08:03:48;;;;;;;11.98;6.40;;;8.70;99.90;;;;;;5027336;28;20128;-53
2024/02/22 08:06:16;;;;;;;6.35;3.67;;;8.70;99.90;;;;;;5027483;28;20045;-50
2024/02/22 08:08:43;;;;;;;6.53;3.88;;;8.70;99.90;;;;;;5010351;28;20053;-47
2024/02/22 08:11:13;;;;;;;9.00;3.55;;;8.70;99.90;;;;;;5027187;28;20045;-46
2024/02/22 08:13:40;;;;;;;9.40;3.90;;;8.70;99.90;;;;;;5024068;28;20054;-50
2024/02/22 08:16:08;;;;;;;9.27;3.75;;;8.70;99.90;;;;;;5011152;28;20061;-49
2024/02/22 08:18:37;;;;;;;13.07;3.95;;;8.80;99.90;;;;;;5029429;28;20059;-52
2024/02/22 08:21:06;;;;;;;5.85;3.20;;;8.80;99.90;;;;;;5028307;28;20096;-46
2024/02/22 08:23:33;;;;;;;6.78;3.33;;;8.80;99.90;;;;;;5031927;28;20049;-49
2024/02/22 08:26:01;;;;;;;8.68;3.47;;;8.80;99.90;;;;;;5030092;28;20447;-46
2024/02/22 08:28:28;;;;;;;7.95;3.35;;;8.80;99.90;;;;;;5030773;28;20052;-45
2024/02/22 08:30:55;;;;;;;5.38;3.05;;;8.90;99.90;;;;;;5032642;28;20049;-46
2024/02/22 08:33:26;;;;;;;6.68;3.17;;;8.90;99.90;;;;;;5031303;28;20109;-49
2024/02/22 08:35:56;;;;;;;4.67;3.00;;;8.90;99.90;;;;;;5029235;28;20037;-51
2024/02/22 08:38:25;;;;;;;6.88;3.72;;;9.00;99.90;;;;;;5029839;28;20073;-47
2024/02/22 08:40:53;;;;;;;4.95;2.95;;;8.90;99.90;;;;;;5027925;28;20271;-45
2024/02/22 08:43:20;;;;;;;6.28;3.08;;;9.00;99.90;;;;;;5025674;28;20049;-49
2024/02/22 08:45:51;;;;;;;5.22;3.08;;;9.10;99.90;;;;;;5026292;28;20127;-57
2024/02/22 08:48:18;;;;;;;6.07;2.75;;;9.10;99.90;;;;;;5023505;28;20080;-48
2024/02/22 08:50:45;;;;;;;6.80;3.33;;;9.00;99.90;;;;;;5011879;28;20058;-52
2024/02/22 08:53:12;;;;;;;6.75;3.88;;;9.10;99.90;;;;;;5029316;28;20056;-51
2024/02/22 08:55:39;;;;;;;6.90;3.22;;;9.10;99.90;;;;;;5030549;28;20108;-52
2024/02/22 08:58:07;;;;;;;4.43;2.60;;;9.20;99.90;;;;;;5029254;28;20052;-52
2024/02/22 09:00:34;;;;;;;5.65;3.08;;;9.20;99.90;;;;;;5029587;28;20049;-48
2024/02/22 09:03:01;;;;;;;6.68;3.38;;;9.20;99.90;;;;;;5029432;28;20068;-50
2024/02/22 09:05:28;;;;;;;5.28;2.80;;;9.30;99.90;;;;;;5030626;28;20588;-48
2024/02/22 09:07:55;;;;;;;5.18;2.90;;;9.30;99.90;;;;;;5029475;28;20434;-47
2024/02/22 09:10:23;;;;;;;6.68;2.55;;;9.30;99.90;;;;;;5033585;28;20033;-52
2024/02/22 09:12:50;;;;;;;6.55;3.10;;;9.30;99.90;;;;;;5032288;28;20046;-43
2024/02/22 09:15:17;;;;;;;4.88;2.60;;;9.30;99.90;;;;;;5033873;28;20465;-48
2024/02/22 09:17:44;;;;;;;5.95;3.05;;;9.40;99.90;;;;;;5009529;28;20440;-48
2024/02/22 09:20:12;;;;;;;6.47;2.40;;;9.40;99.90;;;;;;5030334;28;20045;-47
2024/02/22 09:22:41;;;;;;;5.45;2.20;;;9.50;99.90;;;;;;5027469;28;20072;-44
2024/02/22 09:25:10;;;;;;;4.85;2.20;;;9.50;99.90;;;;;;5031910;28;20120;-49
2024/02/22 09:27:37;;;;;;;6.68;2.22;;;9.50;99.90;;;;;;5031561;28;20128;-52
2024/02/22 09:30:05;;;;;;;4.00;2.22;;;9.60;99.90;;;;;;5030561;28;20418;-48
2024/02/22 09:32:32;;;;;;;4.30;1.98;;;9.60;99.90;;;;;;5027697;28;20424;-57
2024/02/22 09:34:59;;;;;;;4.93;2.40;;;9.70;99.90;;;;;;5029916;28;20132;-45
2024/02/22 09:37:27;;;;;;;4.65;2.10;;;9.70;99.90;;;;;;5031081;28;20141;-42
2024/02/22 09:39:54;;;;;;;3.60;2.30;;;9.70;99.90;;;;;;5030189;28;20045;-46
2024/02/22 09:42:26;;;;;;;4.05;2.17;;;9.70;99.90;;;;;;5034273;28;20065;-44
2024/02/22 09:44:55;;;;;;;4.30;2.20;;;9.70;99.90;;;;;;5026051;28;20047;-43
2024/02/22 09:47:23;;;;;;;4.55;1.80;;;9.70;99.90;;;;;;5029009;28;20057;-44
2024/02/22 09:49:51;;;;;;;5.60;2.60;;;9.70;99.90;;;;;;5037144;28;20049;-50
2024/02/22 09:52:21;;;;;;;3.33;1.65;;;9.80;99.90;;;;;;5034463;28;20029;-51
2024/02/22 09:54:49;;;;;;;4.80;1.83;;;9.80;99.90;;;;;;5033460;28;20053;-44
2024/02/22 09:57:16;;;;;;;4.88;1.75;;;9.90;99.90;;;;;;5029480;28;20513;-49
2024/02/22 09:59:49;;;;;;;5.13;2.17;;;10.00;99.90;;;;;;5030804;28;20482;-47
2024/02/22 10:02:17;;;;;;;3.50;1.70;;;10.10;99.90;;;;;;5026086;28;20568;-46
2024/02/22 10:04:58;;;;;;;3.75;2.22;;;10.30;99.90;;;;;;5030443;28;20044;-50
2024/02/22 10:07:35;;;;;;;4.15;2.10;;;10.40;99.90;;;;;;5029161;28;20453;-45
2024/02/22 10:10:03;;;;;;;4.65;2.08;;;10.50;99.90;;;;;;5027595;28;20510;-50
2024/02/22 10:12:32;;;;;;;4.97;2.50;;;10.70;99.90;;;;;;5029948;28;20067;-49
2024/02/22 10:15:08;;;;;;;5.97;1.80;;;11.00;99.90;;;;;;5027972;28;20053;-49
2024/02/22 10:17:37;;;;;;;3.25;1.70;;;11.00;99.90;;;;;;5027372;28;20041;-45
2024/02/22 10:20:06;;;;;;;4.35;1.63;;;11.20;99.90;;;;;;5029942;28;20140;-49
2024/02/22 10:22:35;;;;;;;2.75;1.50;;;11.40;99.90;;;;;;5027525;28;20470;-48
2024/02/22 10:25:10;;;;;;;3.58;1.80;;;11.50;99.90;;;;;;5028963;28;20411;-47
2024/02/22 10:27:37;;;;;;;5.10;1.80;;;11.70;99.90;;;;;;5031703;28;20037;-47
2024/02/22 10:30:09;;;;;;;2.85;1.70;;;11.90;99.90;;;;;;5030980;28;20538;-54
2024/02/22 10:32:40;;;;;;;3.90;1.88;;;11.90;99.90;;;;;;5027943;28;20132;-49
2024/02/22 10:35:09;;;;;;;8.23;2.20;;;12.00;99.90;;;;;;5032777;28;20329;-50
2024/02/22 10:37:36;;;;;;;3.70;1.65;;;12.00;99.90;;;;;;5033027;28;20292;-46
2024/02/22 10:40:08;;;;;;;3.60;1.85;;;11.90;99.90;;;;;;5031136;28;20064;-48
2024/02/22 10:42:37;;;;;;;4.28;1.77;;;11.70;99.90;;;;;;5030417;28;20083;-48
2024/02/22 10:45:05;;;;;;;3.38;1.52;;;11.50;99.90;;;;;;5029590;28;20076;-47
2024/02/22 10:47:35;;;;;;;4.38;1.73;;;11.50;99.90;;;;;;5028918;28;20082;-52
2024/02/22 10:50:04;;;;;;;3.28;1.67;;;11.50;99.90;;;;;;5025750;28;20119;-50
2024/02/22 10:52:42;;;;;;;3.75;1.50;;;11.40;99.90;;;;;;5030834;28;20476;-45
2024/02/22 10:55:15;;;;;;;2.58;1.50;;;11.40;99.90;;;;;;5026879;28;20034;-49
2024/02/22 10:57:47;;;;;;;2.25;1.30;;;11.30;99.90;;;;;;5027905;28;20041;-47
2024/02/22 11:00:15;;;;;;;2.45;1.48;;;11.20;99.90;;;;;;5006784;28;20042;-50
2024/02/22 11:02:44;;;;;;;3.80;1.45;;;11.20;99.90;;;;;;5030179;28;20057;-52
2024/02/22 11:05:12;;;;;;;2.55;1.30;;;11.30;99.90;;;;;;5030437;28;20072;-50
2024/02/22 11:07:43;;;;;;;4.30;1.40;;;11.30;99.90;;;;;;5010314;28;20084;-47
2024/02/22 11:10:12;;;;;;;2.77;1.50;;;11.40;99.90;;;;;;5027573;28;20055;-49
2024/02/22 11:12:45;;;;;;;2.33;1.30;;;11.50;99.90;;;;;;5023125;28;20729;-51
2024/02/22 11:15:13;;;;;;;3.20;1.58;;;11.50;99.90;;;;;;5029324;28;20051;-49
2024/02/22 11:17:51;;;;;;;1.70;1.05;;;11.60;99.90;;;;;;5028240;28;20051;-52
2024/02/22 11:20:28;;;;;;;2.08;1.27;;;11.50;99.90;;;;;;5025478;28;20048;-47
2024/02/22 11:22:55;;;;;;;2.70;1.40;;;11.60;99.90;;;;;;5024813;28;20045;-50
2024/02/22 11:25:22;;;;;;;3.38;1.38;;;11.70;99.90;;;;;;5026101;28;20488;-46
2024/02/22 11:27:59;;;;;;;3.03;1.45;;;11.80;99.90;;;;;;5026866;28;20513;-47
2024/02/22 11:30:27;;;;;;;2.65;1.35;;;11.90;99.90;;;;;;5028151;28;20033;-49
2024/02/22 11:32:55;;;;;;;2.83;1.50;;;12.00;99.90;;;;;;5027135;28;20056;-50
2024/02/22 11:35:23;;;;;;;2.75;1.52;;;12.00;99.90;;;;;;5026722;28;20088;-47
2024/02/22 11:38:19;;;;;;;4.53;1.52;;;11.90;99.90;;;;;;5027243;28;20053;-48
2024/02/22 11:40:46;;;;;;;3.42;1.60;;;11.90;99.90;;;;;;5021173;28;20096;-52
2024/02/22 11:43:13;;;;;;;3.40;1.60;;;11.70;99.90;;;;;;5021046;28;20261;-48
2024/02/22 11:45:41;;;;;;;3.63;1.60;;;11.60;99.90;;;;;;5024806;28;20191;-50
2024/02/22 11:48:08;;;;;;;3.10;1.60;;;11.60;99.90;;;;;;5026125;28;20154;-47
2024/02/22 11:50:35;;;;;;;2.65;1.50;;;11.60;99.90;;;;;;5023456;28;20041;-51
2024/02/22 11:53:02;;;;;;;3.40;1.80;;;11.50;99.90;;;;;;5028749;28;20041;-48
2024/02/22 11:55:32;;;;;;;3.53;1.60;;;11.60;99.90;;;;;;5025984;28;20072;-49
2024/02/22 11:57:59;;;;;;;2.83;1.35;;;11.60;99.90;;;;;;5025161;28;20132;-48
2024/02/22 12:00:26;;;;;;;3.35;1.80;;;11.60;99.90;;;;;;5025298;28;20103;-50
2024/02/22 12:02:55;;;;;;;3.40;1.20;;;11.60;99.90;;;;;;5021817;28;20116;-46
2024/02/22 12:05:24;;;;;;;3.58;1.50;;;11.60;99.90;;;;;;5024772;28;20045;-52
2024/02/22 12:07:52;;;;;;;2.08;1.10;;;11.60;99.90;;;;;;5026231;28;20053;-48
2024/02/22 12:10:20;;;;;;;4.82;1.05;;;11.60;99.90;;;;;;5008898;28;20046;-50
2024/02/22 12:12:47;;;;;;;2.33;1.30;;;11.70;99.90;;;;;;5024539;28;20041;-50
2024/02/22 12:15:18;;;;;;;2.33;1.17;;;11.70;99.90;;;;;;5025598;28;20037;-53
2024/02/22 12:17:50;;;;;;;5.22;1.30;;;11.80;99.90;;;;;;5025030;28;20049;-44
2024/02/22 12:20:21;;;;;;;2.95;1.20;;;11.90;99.90;;;;;;5025877;28;20049;-46
2024/02/22 12:22:50;;;;;;;2.75;1.63;;;11.90;99.90;;;;;;5025607;28;20037;-51
2024/02/22 12:25:17;;;;;;;1.98;1.10;;;11.80;99.90;;;;;;5025029;28;20124;-50
2024/02/22 12:27:53;;;;;;;1.52;1.15;;;11.90;99.90;;;;;;5021599;28;20046;-49
2024/02/22 12:30:22;;;;;;;2.55;1.55;;;12.00;99.90;;;;;;5025302;28;20185;-50
2024/02/22 12:32:50;;;;;;;2.22;1.33;;;12.00;99.90;;;;;;5025794;28;20072;-47
2024/02/22 12:35:18;;;;;;;2.92;1.40;;;12.10;99.90;;;;;;5024816;28;20076;-48
2024/02/22 12:37:46;;;;;;;3.20;1.15;;;12.20;99.90;;;;;;5025632;28;20037;-49
2024/02/22 12:40:13;;;;;;;2.47;1.20;;;12.10;99.90;;;;;;5027598;28;20042;-50
2024/02/22 12:42:40;;;;;;;1.70;1.20;;;12.10;99.90;;;;;;5029236;28;20087;-48
2024/02/22 12:45:07;;;;;;;2.25;1.25;;;12.10;99.90;;;;;;5027608;28;20045;-54
2024/02/22 12:47:34;;;;;;;2.05;1.33;;;12.20;99.90;;;;;;5027170;28;20047;-45
2024/02/22 12:50:01;;;;;;;2.63;1.30;;;12.30;99.90;;;;;;5028665;28;20042;-49
2024/02/22 12:52:28;;;;;;;2.08;1.52;;;12.20;99.90;;;;;;5030530;28;20446;-45
2024/02/22 12:54:55;;;;;;;2.83;1.45;;;12.20;99.90;;;;;;5032803;28;20045;-52